sensor_id;sensor_type;location;lat;lon;timestamp;pressure;altitude;pressure_sealevel;temperature;humidity
70103;BME280;57470;50.034;15.256;2022-08-04T00:00:20;99401.72;;;21.87;60.06
70103;BME280;57470;50.034;15.256;2022-08-04T00:10:27;99402.09;;;21.84;60.19
70103;BME280;57470;50.034;15.256;2022-08-04T00:12:54;99399.88;;;21.57;61.20
70103;BME280;57470;50.034;15.256;2022-08-04T00:15:20;99395.38;;;21.41;61.82
70103;BME280;57470;50.034;15.256;2022-08-04T00:17:54;99402.28;;;21.52;61.28
70103;BME280;57470;50.034;15.256;2022-08-04T00:20:29;99394.09;;;21.29;62.05
70103;BME280;57470;50.034;15.256;2022-08-04T00:22:56;99397.19;;;21.49;61.67
70103;BME280;57470;50.034;15.256;2022-08-04T00:25:23;99404.69;;;21.47;61.54
70103;BME280;57470;50.034;15.256;2022-08-04T00:27:48;99402.34;;;21.36;62.10
70103;BME280;57470;50.034;15.256;2022-08-04T00:30:15;99407.00;;;21.19;62.81
70103;BME280;57470;50.034;15.256;2022-08-04T00:32:41;99407.38;;;21.39;62.42
70103;BME280;57470;50.034;15.256;2022-08-04T00:35:12;99414.03;;;21.36;62.16
70103;BME280;57470;50.034;15.256;2022-08-04T00:37:39;99407.25;;;21.32;62.02
70103;BME280;57470;50.034;15.256;2022-08-04T00:40:27;99419.75;;;21.41;62.16
70103;BME280;57470;50.034;15.256;2022-08-04T00:43:07;99418.06;;;21.32;62.41
70103;BME280;57470;50.034;15.256;2022-08-04T01:07:22;99427.59;;;21.28;62.21
70103;BME280;57470;50.034;15.256;2022-08-04T01:10:10;99420.19;;;21.53;60.74
70103;BME280;57470;50.034;15.256;2022-08-04T01:15:35;99419.69;;;21.49;61.42
70103;BME280;57470;50.034;15.256;2022-08-04T01:18:05;99425.53;;;21.38;61.71
70103;BME280;57470;50.034;15.256;2022-08-04T01:20:41;99423.34;;;21.25;62.05
70103;BME280;57470;50.034;15.256;2022-08-04T01:29:36;99416.56;;;21.29;61.08
70103;BME280;57470;50.034;15.256;2022-08-04T01:31:41;99423.03;;;21.20;61.87
70103;BME280;57470;50.034;15.256;2022-08-04T01:34:11;99424.03;;;21.27;61.71
70103;BME280;57470;50.034;15.256;2022-08-04T01:36:45;99425.56;;;21.22;61.85
70103;BME280;57470;50.034;15.256;2022-08-04T01:39:13;99417.59;;;21.28;61.33
70103;BME280;57470;50.034;15.256;2022-08-04T01:41:59;99420.47;;;21.27;61.50
70103;BME280;57470;50.034;15.256;2022-08-04T01:44:27;99416.59;;;21.21;61.66
70103;BME280;57470;50.034;15.256;2022-08-04T01:47:00;99416.97;;;21.10;61.96
70103;BME280;57470;50.034;15.256;2022-08-04T01:49:31;99425.75;;;21.04;62.17
70103;BME280;57470;50.034;15.256;2022-08-04T01:51:59;99422.16;;;21.12;62.05
70103;BME280;57470;50.034;15.256;2022-08-04T01:54:29;99418.88;;;20.93;61.92
70103;BME280;57470;50.034;15.256;2022-08-04T01:56:57;99421.69;;;21.08;61.61
70103;BME280;57470;50.034;15.256;2022-08-04T01:59:27;99418.13;;;21.16;61.10
70103;BME280;57470;50.034;15.256;2022-08-04T02:01:55;99420.97;;;21.14;61.45
70103;BME280;57470;50.034;15.256;2022-08-04T02:04:21;99416.75;;;21.12;61.01
70103;BME280;57470;50.034;15.256;2022-08-04T02:09:46;99415.66;;;20.90;62.67
70103;BME280;57470;50.034;15.256;2022-08-04T02:12:26;99422.56;;;21.01;61.96
70103;BME280;57470;50.034;15.256;2022-08-04T02:15:03;99419.22;;;20.82;62.76
70103;BME280;57470;50.034;15.256;2022-08-04T02:17:53;99423.25;;;20.86;62.67
70103;BME280;57470;50.034;15.256;2022-08-04T02:22:59;99419.38;;;20.89;61.73
70103;BME280;57470;50.034;15.256;2022-08-04T02:25:27;99417.34;;;20.91;61.76
70103;BME280;57470;50.034;15.256;2022-08-04T02:30:18;99418.22;;;20.75;62.16
70103;BME280;57470;50.034;15.256;2022-08-04T02:32:46;99418.03;;;20.77;62.85
70103;BME280;57470;50.034;15.256;2022-08-04T02:35:26;99417.88;;;20.70;62.62
70103;BME280;57470;50.034;15.256;2022-08-04T02:38:03;99406.38;;;20.68;63.00
70103;BME280;57470;50.034;15.256;2022-08-04T02:40:30;99415.69;;;20.49;63.90
70103;BME280;57470;50.034;15.256;2022-08-04T02:42:57;99413.16;;;20.56;63.79
70103;BME280;57470;50.034;15.256;2022-08-04T02:45:25;99405.41;;;20.37;64.86
70103;BME280;57470;50.034;15.256;2022-08-04T02:47:52;99414.34;;;20.53;63.81
70103;BME280;57470;50.034;15.256;2022-08-04T02:50:20;99414.69;;;20.42;64.51
70103;BME280;57470;50.034;15.256;2022-08-04T02:52:47;99416.72;;;20.48;63.17
70103;BME280;57470;50.034;15.256;2022-08-04T02:55:16;99418.06;;;20.52;63.50
70103;BME280;57470;50.034;15.256;2022-08-04T02:57:44;99419.59;;;20.55;62.52
70103;BME280;57470;50.034;15.256;2022-08-04T03:00:13;99430.72;;;20.52;62.99
70103;BME280;57470;50.034;15.256;2022-08-04T03:02:58;99420.75;;;20.52;63.12
70103;BME280;57470;50.034;15.256;2022-08-04T03:08:32;99426.84;;;20.46;63.30
70103;BME280;57470;50.034;15.256;2022-08-04T03:11:10;99421.28;;;20.40;63.34
70103;BME280;57470;50.034;15.256;2022-08-04T03:22:34;99425.28;;;20.11;64.22
70103;BME280;57470;50.034;15.256;2022-08-04T03:39:21;99424.28;;;20.20;63.94
70103;BME280;57470;50.034;15.256;2022-08-04T03:50:21;99425.13;;;20.29;63.85
70103;BME280;57470;50.034;15.256;2022-08-04T04:01:42;99432.69;;;19.93;65.76
70103;BME280;57470;50.034;15.256;2022-08-04T04:10:18;99427.88;;;20.37;64.95
70103;BME280;57470;50.034;15.256;2022-08-04T04:17:45;99427.44;;;21.91;61.06
70103;BME280;57470;50.034;15.256;2022-08-04T04:20:24;99426.03;;;21.73;61.83
70103;BME280;57470;50.034;15.256;2022-08-04T04:23:14;99439.56;;;22.72;59.30
70103;BME280;57470;50.034;15.256;2022-08-04T04:26:06;99438.19;;;23.93;55.98
70103;BME280;57470;50.034;15.256;2022-08-04T04:31:37;99434.44;;;25.01;51.63
70103;BME280;57470;50.034;15.256;2022-08-04T04:34:15;99432.84;;;23.35;56.96
70103;BME280;57470;50.034;15.256;2022-08-04T04:45:24;99431.44;;;21.33;63.22
70103;BME280;57470;50.034;15.256;2022-08-04T04:50:36;99434.44;;;20.83;65.63
70103;BME280;57470;50.034;15.256;2022-08-04T04:56:03;99449.63;;;20.84;65.87
70103;BME280;57470;50.034;15.256;2022-08-04T04:58:32;99448.44;;;20.71;64.83
70103;BME280;57470;50.034;15.256;2022-08-04T05:01:27;99449.59;;;21.09;64.44
70103;BME280;57470;50.034;15.256;2022-08-04T05:12:37;99452.63;;;20.97;65.12
70103;BME280;57470;50.034;15.256;2022-08-04T05:15:09;99456.47;;;21.36;63.89
70103;BME280;57470;50.034;15.256;2022-08-04T05:17:38;99456.91;;;21.55;63.32
70103;BME280;57470;50.034;15.256;2022-08-04T05:20:09;99450.47;;;21.48;63.36
70103;BME280;57470;50.034;15.256;2022-08-04T05:22:44;99440.78;;;21.62;62.63
70103;BME280;57470;50.034;15.256;2022-08-04T05:27:40;99434.78;;;21.83;62.06
70103;BME280;57470;50.034;15.256;2022-08-04T05:30:10;99445.91;;;21.88;62.03
70103;BME280;57470;50.034;15.256;2022-08-04T05:32:47;99452.53;;;22.16;61.13
70103;BME280;57470;50.034;15.256;2022-08-04T05:35:20;99451.75;;;22.30;61.05
70103;BME280;57470;50.034;15.256;2022-08-04T05:37:48;99449.28;;;22.43;60.07
70103;BME280;57470;50.034;15.256;2022-08-04T05:40:16;99458.59;;;22.64;58.76
70103;BME280;57470;50.034;15.256;2022-08-04T05:42:43;99458.56;;;22.26;58.64
70103;BME280;57470;50.034;15.256;2022-08-04T05:45:08;99455.56;;;22.44;58.40
70103;BME280;57470;50.034;15.256;2022-08-04T05:47:34;99456.53;;;22.66;58.33
70103;BME280;57470;50.034;15.256;2022-08-04T05:50:03;99454.09;;;22.79;58.18
70103;BME280;57470;50.034;15.256;2022-08-04T05:52:34;99457.97;;;22.99;57.56
70103;BME280;57470;50.034;15.256;2022-08-04T05:55:01;99453.13;;;23.24;56.84
70103;BME280;57470;50.034;15.256;2022-08-04T05:57:28;99450.03;;;23.27;56.30
70103;BME280;57470;50.034;15.256;2022-08-04T05:59:56;99452.94;;;23.40;56.73
70103;BME280;57470;50.034;15.256;2022-08-04T06:02:24;99445.47;;;23.42;55.96
70103;BME280;57470;50.034;15.256;2022-08-04T06:04:51;99446.69;;;23.25;55.37
70103;BME280;57470;50.034;15.256;2022-08-04T06:07:17;99443.22;;;23.16;55.66
70103;BME280;57470;50.034;15.256;2022-08-04T06:09:45;99448.72;;;23.38;55.44
70103;BME280;57470;50.034;15.256;2022-08-04T06:12:15;99452.97;;;23.70;55.51
70103;BME280;57470;50.034;15.256;2022-08-04T06:14:44;99451.88;;;23.85;55.06
70103;BME280;57470;50.034;15.256;2022-08-04T06:17:14;99458.59;;;24.04;55.84
70103;BME280;57470;50.034;15.256;2022-08-04T06:19:40;99446.09;;;24.10;54.91
70103;BME280;57470;50.034;15.256;2022-08-04T06:22:09;99456.91;;;24.39;54.46
70103;BME280;57470;50.034;15.256;2022-08-04T06:24:37;99444.34;;;24.38;52.65
70103;BME280;57470;50.034;15.256;2022-08-04T06:27:04;99449.50;;;24.76;52.25
70103;BME280;57470;50.034;15.256;2022-08-04T06:29:31;99448.56;;;24.90;52.51
70103;BME280;57470;50.034;15.256;2022-08-04T06:32:04;99454.28;;;24.74;52.87
70103;BME280;57470;50.034;15.256;2022-08-04T06:34:54;99454.41;;;25.15;51.72
70103;BME280;57470;50.034;15.256;2022-08-04T06:37:21;99451.19;;;25.32;51.98
70103;BME280;57470;50.034;15.256;2022-08-04T06:39:48;99452.19;;;25.59;51.02
70103;BME280;57470;50.034;15.256;2022-08-04T06:42:16;99446.88;;;25.51;50.10
70103;BME280;57470;50.034;15.256;2022-08-04T06:44:43;99449.56;;;25.79;49.30
70103;BME280;57470;50.034;15.256;2022-08-04T06:47:11;99443.78;;;26.02;48.40
70103;BME280;57470;50.034;15.256;2022-08-04T06:49:38;99446.34;;;26.10;48.11
70103;BME280;57470;50.034;15.256;2022-08-04T06:52:05;99441.38;;;26.27;47.64
70103;BME280;57470;50.034;15.256;2022-08-04T06:54:30;99443.50;;;26.38;47.38
70103;BME280;57470;50.034;15.256;2022-08-04T06:56:57;99444.09;;;26.33;48.73
70103;BME280;57470;50.034;15.256;2022-08-04T06:59:23;99448.09;;;26.37;47.86
70103;BME280;57470;50.034;15.256;2022-08-04T07:01:51;99440.06;;;26.23;48.17
70103;BME280;57470;50.034;15.256;2022-08-04T07:04:17;99440.56;;;26.52;47.26
70103;BME280;57470;50.034;15.256;2022-08-04T07:06:43;99442.25;;;26.47;46.03
70103;BME280;57470;50.034;15.256;2022-08-04T07:09:09;99435.09;;;26.59;46.78
70103;BME280;57470;50.034;15.256;2022-08-04T07:11:35;99432.16;;;26.41;45.17
70103;BME280;57470;50.034;15.256;2022-08-04T07:14:01;99434.66;;;26.42;44.86
70103;BME280;57470;50.034;15.256;2022-08-04T07:16:27;99434.66;;;26.42;44.31
70103;BME280;57470;50.034;15.256;2022-08-04T07:18:52;99443.09;;;26.74;45.55
70103;BME280;57470;50.034;15.256;2022-08-04T07:21:22;99444.13;;;27.12;44.07
70103;BME280;57470;50.034;15.256;2022-08-04T07:23:48;99447.72;;;27.19;43.69
70103;BME280;57470;50.034;15.256;2022-08-04T07:26:14;99440.50;;;27.38;42.09
70103;BME280;57470;50.034;15.256;2022-08-04T07:28:43;99441.69;;;27.82;42.18
70103;BME280;57470;50.034;15.256;2022-08-04T07:31:10;99442.16;;;27.52;42.82
70103;BME280;57470;50.034;15.256;2022-08-04T07:33:37;99445.72;;;27.73;41.88
70103;BME280;57470;50.034;15.256;2022-08-04T07:36:04;99441.81;;;28.00;41.34
70103;BME280;57470;50.034;15.256;2022-08-04T07:38:29;99438.66;;;27.96;42.21
70103;BME280;57470;50.034;15.256;2022-08-04T07:40:55;99438.06;;;27.88;41.50
70103;BME280;57470;50.034;15.256;2022-08-04T07:43:21;99445.06;;;28.22;42.90
70103;BME280;57470;50.034;15.256;2022-08-04T07:45:47;99437.13;;;28.45;40.54
70103;BME280;57470;50.034;15.256;2022-08-04T07:48:13;99441.31;;;28.48;41.05
70103;BME280;57470;50.034;15.256;2022-08-04T07:50:41;99438.50;;;28.61;40.00
70103;BME280;57470;50.034;15.256;2022-08-04T07:53:11;99434.44;;;28.95;40.12
70103;BME280;57470;50.034;15.256;2022-08-04T07:55:37;99437.25;;;28.88;39.19
70103;BME280;57470;50.034;15.256;2022-08-04T07:58:02;99430.38;;;28.72;40.48
70103;BME280;57470;50.034;15.256;2022-08-04T08:00:29;99430.00;;;28.37;41.22
70103;BME280;57470;50.034;15.256;2022-08-04T08:02:55;99426.28;;;28.32;40.90
70103;BME280;57470;50.034;15.256;2022-08-04T08:05:20;99428.88;;;28.52;40.22
70103;BME280;57470;50.034;15.256;2022-08-04T08:07:50;99428.03;;;28.51;39.62
70103;BME280;57470;50.034;15.256;2022-08-04T08:10:16;99425.75;;;28.73;40.21
70103;BME280;57470;50.034;15.256;2022-08-04T08:12:42;99423.81;;;29.05;40.20
70103;BME280;57470;50.034;15.256;2022-08-04T08:15:11;99416.09;;;29.38;40.75
70103;BME280;57470;50.034;15.256;2022-08-04T08:17:37;99423.25;;;28.96;41.04
70103;BME280;57470;50.034;15.256;2022-08-04T08:20:03;99415.63;;;29.23;39.89
70103;BME280;57470;50.034;15.256;2022-08-04T08:22:30;99404.91;;;29.58;38.93
70103;BME280;57470;50.034;15.256;2022-08-04T08:24:56;99402.78;;;29.60;38.98
70103;BME280;57470;50.034;15.256;2022-08-04T08:27:22;99407.94;;;30.16;40.16
70103;BME280;57470;50.034;15.256;2022-08-04T08:29:48;99412.44;;;29.63;39.65
70103;BME280;57470;50.034;15.256;2022-08-04T08:32:13;99417.28;;;30.27;37.63
70103;BME280;57470;50.034;15.256;2022-08-04T08:34:40;99407.03;;;30.34;37.27
70103;BME280;57470;50.034;15.256;2022-08-04T08:37:17;99418.28;;;30.44;36.34
70103;BME280;57470;50.034;15.256;2022-08-04T08:42:40;99413.88;;;30.43;37.67
70103;BME280;57470;50.034;15.256;2022-08-04T08:56:11;99400.25;;;31.02;36.76
70103;BME280;57470;50.034;15.256;2022-08-04T08:58:59;99406.13;;;30.40;38.60
70103;BME280;57470;50.034;15.256;2022-08-04T09:04:15;99401.91;;;30.91;35.23
70103;BME280;57470;50.034;15.256;2022-08-04T09:07:18;99398.38;;;31.14;35.17
70103;BME280;57470;50.034;15.256;2022-08-04T09:12:40;99404.59;;;31.09;35.87
70103;BME280;57470;50.034;15.256;2022-08-04T09:15:14;99408.03;;;31.16;35.02
70103;BME280;57470;50.034;15.256;2022-08-04T09:17:51;99407.69;;;31.13;34.97
70103;BME280;57470;50.034;15.256;2022-08-04T09:20:24;99397.88;;;31.40;34.07
70103;BME280;57470;50.034;15.256;2022-08-04T09:23:04;99391.53;;;31.40;34.52
70103;BME280;57470;50.034;15.256;2022-08-04T09:25:40;99393.06;;;31.36;34.44
70103;BME280;57470;50.034;15.256;2022-08-04T09:28:24;99398.19;;;31.67;34.39
70103;BME280;57470;50.034;15.256;2022-08-04T09:31:03;99394.00;;;31.53;35.30
70103;BME280;57470;50.034;15.256;2022-08-04T09:33:44;99396.28;;;31.56;33.18
70103;BME280;57470;50.034;15.256;2022-08-04T09:36:31;99393.53;;;31.56;34.68
70103;BME280;57470;50.034;15.256;2022-08-04T09:39:23;99382.75;;;31.54;34.20
70103;BME280;57470;50.034;15.256;2022-08-04T09:42:02;99379.97;;;31.78;34.45
70103;BME280;57470;50.034;15.256;2022-08-04T09:45:32;99380.41;;;31.86;32.64
70103;BME280;57470;50.034;15.256;2022-08-04T09:47:44;99387.06;;;31.62;35.23
70103;BME280;57470;50.034;15.256;2022-08-04T09:55:42;99364.88;;;31.80;33.75
70103;BME280;57470;50.034;15.256;2022-08-04T09:58:46;99374.44;;;31.78;33.30
70103;BME280;57470;50.034;15.256;2022-08-04T10:01:26;99360.38;;;31.74;31.89
70103;BME280;57470;50.034;15.256;2022-08-04T10:04:00;99364.59;;;31.93;34.42
70103;BME280;57470;50.034;15.256;2022-08-04T10:06:47;99358.91;;;31.83;33.08
70103;BME280;57470;50.034;15.256;2022-08-04T10:09:33;99363.81;;;32.10;30.69
70103;BME280;57470;50.034;15.256;2022-08-04T10:15:13;99357.09;;;32.51;30.48
70103;BME280;57470;50.034;15.256;2022-08-04T10:23:33;99351.84;;;32.49;31.97
70103;BME280;57470;50.034;15.256;2022-08-04T10:29:06;99347.69;;;32.80;33.25
70103;BME280;57470;50.034;15.256;2022-08-04T10:31:43;99342.66;;;32.94;30.12
70103;BME280;57470;50.034;15.256;2022-08-04T10:34:12;99349.13;;;32.83;32.15
70103;BME280;57470;50.034;15.256;2022-08-04T10:39:49;99344.75;;;32.87;30.89
70103;BME280;57470;50.034;15.256;2022-08-04T10:42:37;99329.59;;;33.23;29.84
70103;BME280;57470;50.034;15.256;2022-08-04T10:45:17;99329.59;;;33.23;31.17
70103;BME280;57470;50.034;15.256;2022-08-04T10:48:12;99331.91;;;33.14;31.25
70103;BME280;57470;50.034;15.256;2022-08-04T10:50:48;99324.00;;;33.39;29.23
70103;BME280;57470;50.034;15.256;2022-08-04T10:53:18;99325.09;;;33.38;29.28
70103;BME280;57470;50.034;15.256;2022-08-04T10:56:37;99335.06;;;33.66;29.12
70103;BME280;57470;50.034;15.256;2022-08-04T10:59:32;99329.38;;;33.29;29.03
70103;BME280;57470;50.034;15.256;2022-08-04T11:02:09;99330.81;;;33.53;30.22
70103;BME280;57470;50.034;15.256;2022-08-04T11:04:48;99320.34;;;33.77;29.41
70103;BME280;57470;50.034;15.256;2022-08-04T11:07:17;99313.94;;;32.90;29.82
70103;BME280;57470;50.034;15.256;2022-08-04T11:09:43;99322.06;;;33.40;27.88
70103;BME280;57470;50.034;15.256;2022-08-04T11:14:52;99315.69;;;34.10;27.74
70103;BME280;57470;50.034;15.256;2022-08-04T11:17:25;99315.88;;;33.98;27.13
70103;BME280;57470;50.034;15.256;2022-08-04T11:22:30;99312.94;;;33.83;27.48
70103;BME280;57470;50.034;15.256;2022-08-04T11:27:57;99307.38;;;33.78;29.50
70103;BME280;57470;50.034;15.256;2022-08-04T11:30:31;99321.97;;;33.73;28.87
70103;BME280;57470;50.034;15.256;2022-08-04T11:33:19;99319.09;;;33.68;28.99
70103;BME280;57470;50.034;15.256;2022-08-04T11:35:51;99310.41;;;33.55;30.59
70103;BME280;57470;50.034;15.256;2022-08-04T11:38:34;99310.22;;;33.39;30.48
70103;BME280;57470;50.034;15.256;2022-08-04T11:41:10;99309.63;;;33.81;29.27
70103;BME280;57470;50.034;15.256;2022-08-04T11:46:29;99309.25;;;33.99;29.34
70103;BME280;57470;50.034;15.256;2022-08-04T11:49:31;99313.16;;;34.67;27.45
70103;BME280;57470;50.034;15.256;2022-08-04T11:52:00;99308.59;;;34.83;29.81
70103;BME280;57470;50.034;15.256;2022-08-04T11:54:27;99297.47;;;34.36;26.76
70103;BME280;57470;50.034;15.256;2022-08-04T11:56:53;99297.84;;;34.91;28.60
70103;BME280;57470;50.034;15.256;2022-08-04T11:59:21;99288.88;;;35.16;26.82
70103;BME280;57470;50.034;15.256;2022-08-04T12:02:19;99284.06;;;34.96;26.01
70103;BME280;57470;50.034;15.256;2022-08-04T12:05:01;99286.19;;;35.31;26.09
70103;BME280;57470;50.034;15.256;2022-08-04T12:07:52;99290.69;;;35.43;26.04
70103;BME280;57470;50.034;15.256;2022-08-04T12:10:44;99288.13;;;34.84;27.09
70103;BME280;57470;50.034;15.256;2022-08-04T12:13:23;99287.22;;;35.20;28.67
70103;BME280;57470;50.034;15.256;2022-08-04T12:16:00;99284.41;;;35.10;26.37
70103;BME280;57470;50.034;15.256;2022-08-04T12:18:38;99278.03;;;35.05;25.78
70103;BME280;57470;50.034;15.256;2022-08-04T12:21:10;99280.84;;;35.20;25.80
70103;BME280;57470;50.034;15.256;2022-08-04T12:23:38;99278.63;;;35.12;25.32
70103;BME280;57470;50.034;15.256;2022-08-04T12:26:07;99275.28;;;35.05;25.02
70103;BME280;57470;50.034;15.256;2022-08-04T12:28:37;99285.63;;;34.77;25.79
70103;BME280;57470;50.034;15.256;2022-08-04T12:31:14;99279.44;;;35.90;26.06
70103;BME280;57470;50.034;15.256;2022-08-04T12:33:55;99279.00;;;35.30;25.10
70103;BME280;57470;50.034;15.256;2022-08-04T12:39:11;99269.50;;;35.79;27.00
70103;BME280;57470;50.034;15.256;2022-08-04T12:41:47;99267.59;;;35.22;26.70
70103;BME280;57470;50.034;15.256;2022-08-04T12:44:16;99264.22;;;35.10;27.80
70103;BME280;57470;50.034;15.256;2022-08-04T12:46:45;99260.63;;;35.87;25.71
70103;BME280;57470;50.034;15.256;2022-08-04T12:49:12;99251.78;;;35.95;27.35
70103;BME280;57470;50.034;15.256;2022-08-04T12:51:42;99257.88;;;36.42;28.03
70103;BME280;57470;50.034;15.256;2022-08-04T12:54:09;99253.91;;;35.52;26.43
70103;BME280;57470;50.034;15.256;2022-08-04T12:56:35;99251.47;;;35.76;25.70
70103;BME280;57470;50.034;15.256;2022-08-04T12:59:03;99239.53;;;35.65;25.95
70103;BME280;57470;50.034;15.256;2022-08-04T13:01:30;99232.94;;;36.58;24.87
70103;BME280;57470;50.034;15.256;2022-08-04T13:04:00;99240.72;;;36.05;25.76
70103;BME280;57470;50.034;15.256;2022-08-04T13:06:31;99230.63;;;36.90;24.04
70103;BME280;57470;50.034;15.256;2022-08-04T13:09:07;99224.88;;;36.76;28.14
70103;BME280;57470;50.034;15.256;2022-08-04T13:11:37;99227.38;;;36.42;24.62
70103;BME280;57470;50.034;15.256;2022-08-04T13:14:04;99221.84;;;36.07;25.53
70103;BME280;57470;50.034;15.256;2022-08-04T13:16:32;99228.50;;;36.01;24.13
70103;BME280;57470;50.034;15.256;2022-08-04T13:18:59;99223.81;;;36.12;24.52
70103;BME280;57470;50.034;15.256;2022-08-04T13:21:27;99215.75;;;35.80;25.63
70103;BME280;57470;50.034;15.256;2022-08-04T13:24:01;99224.13;;;36.20;24.07
70103;BME280;57470;50.034;15.256;2022-08-04T13:26:28;99216.63;;;36.05;25.19
70103;BME280;57470;50.034;15.256;2022-08-04T13:28:57;99214.13;;;36.14;23.91
70103;BME280;57470;50.034;15.256;2022-08-04T13:31:26;99214.13;;;36.09;24.38
70103;BME280;57470;50.034;15.256;2022-08-04T13:33:54;99212.19;;;36.09;23.75
70103;BME280;57470;50.034;15.256;2022-08-04T13:36:27;99211.34;;;36.24;25.12
70103;BME280;57470;50.034;15.256;2022-08-04T13:38:57;99209.34;;;35.54;23.75
70103;BME280;57470;50.034;15.256;2022-08-04T13:41:23;99206.63;;;35.89;25.12
70103;BME280;57470;50.034;15.256;2022-08-04T13:43:53;99206.34;;;36.46;23.38
70103;BME280;57470;50.034;15.256;2022-08-04T13:46:26;99197.50;;;36.29;22.66
70103;BME280;57470;50.034;15.256;2022-08-04T13:48:53;99200.25;;;36.50;22.42
70103;BME280;57470;50.034;15.256;2022-08-04T13:51:21;99191.53;;;36.87;22.75
70103;BME280;57470;50.034;15.256;2022-08-04T13:53:58;99196.69;;;35.78;23.96
70103;BME280;57470;50.034;15.256;2022-08-04T13:56:46;99186.13;;;36.41;23.44
70103;BME280;57470;50.034;15.256;2022-08-04T13:59:14;99185.59;;;37.13;21.70
70103;BME280;57470;50.034;15.256;2022-08-04T14:01:43;99173.16;;;37.06;22.86
70103;BME280;57470;50.034;15.256;2022-08-04T14:04:21;99178.56;;;36.67;23.29
70103;BME280;57470;50.034;15.256;2022-08-04T14:09:26;99178.47;;;36.97;23.51
70103;BME280;57470;50.034;15.256;2022-08-04T14:11:55;99175.31;;;36.44;22.41
70103;BME280;57470;50.034;15.256;2022-08-04T14:14:24;99167.19;;;36.78;22.18
70103;BME280;57470;50.034;15.256;2022-08-04T14:17:10;99162.59;;;37.18;22.71
70103;BME280;57470;50.034;15.256;2022-08-04T14:25:04;99164.00;;;37.93;21.65
70103;BME280;57470;50.034;15.256;2022-08-04T14:27:50;99159.69;;;37.38;22.29
70103;BME280;57470;50.034;15.256;2022-08-04T14:30:31;99154.13;;;37.38;22.61
70103;BME280;57470;50.034;15.256;2022-08-04T14:33:06;99148.16;;;37.60;22.92
70103;BME280;57470;50.034;15.256;2022-08-04T14:35:33;99151.09;;;37.35;22.40
70103;BME280;57470;50.034;15.256;2022-08-04T14:38:03;99156.78;;;37.92;22.34
70103;BME280;57470;50.034;15.256;2022-08-04T14:40:31;99158.91;;;36.73;21.98
70103;BME280;57470;50.034;15.256;2022-08-04T14:42:57;99153.38;;;38.01;21.51
70103;BME280;57470;50.034;15.256;2022-08-04T14:45:27;99156.69;;;38.03;21.77
70103;BME280;57470;50.034;15.256;2022-08-04T14:47:54;99151.84;;;38.18;21.22
70103;BME280;57470;50.034;15.256;2022-08-04T14:50:36;99146.47;;;37.59;21.71
70103;BME280;57470;50.034;15.256;2022-08-04T14:53:13;99147.06;;;37.61;21.12
70103;BME280;57470;50.034;15.256;2022-08-04T14:55:43;99144.59;;;37.49;21.45
70103;BME280;57470;50.034;15.256;2022-08-04T14:58:22;99144.16;;;38.34;21.77
70103;BME280;57470;50.034;15.256;2022-08-04T15:00:48;99140.94;;;38.22;21.50
70103;BME280;57470;50.034;15.256;2022-08-04T15:03:14;99139.81;;;38.28;21.46
70103;BME280;57470;50.034;15.256;2022-08-04T15:05:43;99145.00;;;36.83;24.24
70103;BME280;57470;50.034;15.256;2022-08-04T15:08:11;99128.41;;;36.73;21.38
70103;BME280;57470;50.034;15.256;2022-08-04T15:10:38;99131.28;;;37.07;23.08
70103;BME280;57470;50.034;15.256;2022-08-04T15:13:05;99132.47;;;36.91;21.24
70103;BME280;57470;50.034;15.256;2022-08-04T15:15:32;99137.59;;;36.54;23.28
70103;BME280;57470;50.034;15.256;2022-08-04T15:17:58;99139.31;;;36.34;23.04
70103;BME280;57470;50.034;15.256;2022-08-04T15:20:23;99143.25;;;36.98;22.44
70103;BME280;57470;50.034;15.256;2022-08-04T15:22:49;99130.22;;;36.03;24.75
70103;BME280;57470;50.034;15.256;2022-08-04T15:25:14;99128.69;;;36.67;22.17
70103;BME280;57470;50.034;15.256;2022-08-04T15:27:41;99121.97;;;36.83;21.16
70103;BME280;57470;50.034;15.256;2022-08-04T15:30:10;99125.34;;;36.70;23.25
70103;BME280;57470;50.034;15.256;2022-08-04T15:32:50;99130.63;;;36.66;22.93
70103;BME280;57470;50.034;15.256;2022-08-04T15:35:23;99120.00;;;35.94;23.60
70103;BME280;57470;50.034;15.256;2022-08-04T15:45:53;99121.63;;;36.00;23.52
70103;BME280;57470;50.034;15.256;2022-08-04T15:53:30;99117.22;;;35.68;23.46
70103;BME280;57470;50.034;15.256;2022-08-04T15:55:55;99113.91;;;35.87;23.42
70103;BME280;57470;50.034;15.256;2022-08-04T15:58:22;99112.66;;;34.86;25.41
70103;BME280;57470;50.034;15.256;2022-08-04T16:06:39;99112.22;;;35.35;23.33
70103;BME280;57470;50.034;15.256;2022-08-04T16:22:01;99106.94;;;34.46;24.04
70103;BME280;57470;50.034;15.256;2022-08-04T16:24:29;99097.63;;;34.62;23.50
70103;BME280;57470;50.034;15.256;2022-08-04T16:26:59;99092.13;;;34.15;24.08
70103;BME280;57470;50.034;15.256;2022-08-04T16:29:42;99098.78;;;33.77;24.17
70103;BME280;57470;50.034;15.256;2022-08-04T16:34:38;99099.84;;;34.13;26.62
70103;BME280;57470;50.034;15.256;2022-08-04T16:37:07;99099.69;;;33.87;24.67
70103;BME280;57470;50.034;15.256;2022-08-04T16:39:33;99100.03;;;33.64;25.50
70103;BME280;57470;50.034;15.256;2022-08-04T16:41:59;99096.44;;;33.64;25.21
70103;BME280;57470;50.034;15.256;2022-08-04T16:46:54;99096.28;;;33.43;26.09
70103;BME280;57470;50.034;15.256;2022-08-04T16:49:19;99090.41;;;33.35;24.89
70103;BME280;57470;50.034;15.256;2022-08-04T16:51:47;99093.28;;;33.50;24.30
70103;BME280;57470;50.034;15.256;2022-08-04T16:54:13;99097.38;;;33.42;26.08
70103;BME280;57470;50.034;15.256;2022-08-04T16:56:39;99096.38;;;33.59;24.98
70103;BME280;57470;50.034;15.256;2022-08-04T16:59:09;99095.88;;;33.62;26.02
70103;BME280;57470;50.034;15.256;2022-08-04T17:01:35;99086.66;;;32.92;26.49